Time;durP1;ratioP1;P1;durP2;ratioP2;P2;SDS_P1;SDS_P2;PMS_P1;PMS_P2;Temp;Humidity;BMP_temperature;BMP_pressure;BME280_temperature;BME280_humidity;BME280_pressure;Samples;Min_cycle;Max_cycle;Signal;HPM_P1;HPM_P2
2022/11/21 00:00:13;;;;;;;33.75;23.63;;;;;;;0.82;100.00;100432.97;1039800;28;20393;-81
2022/11/21 00:00:47;;;;;;;31.33;22.10;;;;;;;0.81;100.00;100438.34;1031608;28;21147;-81
2022/11/21 00:01:21;;;;;;;33.67;24.13;;;;;;;0.82;100.00;100432.97;1028278;28;20357;-81
2022/11/21 00:01:53;;;;;;;33.85;24.52;;;;;;;0.82;100.00;100440.84;1032973;28;20884;-81
2022/11/21 00:02:25;;;;;;;28.60;21.20;;;;;;;0.83;100.00;100439.84;1035633;28;20300;-81
2022/11/21 00:03:00;;;;;;;28.75;20.60;;;;;;;0.82;100.00;100440.84;1041741;28;20308;-81
2022/11/21 00:03:31;;;;;;;31.65;22.95;;;;;;;0.82;100.00;100438.22;1039312;28;20300;-81
2022/11/21 00:04:03;;;;;;;34.25;25.25;;;;;;;0.80;100.00;100442.78;1031985;28;20354;-81
2022/11/21 00:04:34;;;;;;;31.77;22.58;;;;;;;0.79;100.00;100440.31;1032015;28;20319;-81
2022/11/21 00:05:06;;;;;;;34.15;24.90;;;;;;;0.78;100.00;100442.13;1034782;28;20961;-81
2022/11/21 00:05:41;;;;;;;29.83;22.30;;;;;;;0.76;100.00;100449.34;1031624;28;20297;-81
2022/11/21 00:06:13;;;;;;;30.80;21.83;;;;;;;0.74;100.00;100446.06;1028733;28;20824;-81
2022/11/21 00:06:44;;;;;;;32.67;23.70;;;;;;;0.74;100.00;100442.63;1031506;28;20348;-81
2022/11/21 00:07:16;;;;;;;34.72;23.35;;;;;;;0.73;100.00;100449.66;1031357;28;21507;-81
2022/11/21 00:07:48;;;;;;;31.60;23.52;;;;;;;0.71;100.00;100442.94;1025390;28;20331;-81
2022/11/21 00:08:21;;;;;;;36.88;22.00;;;;;;;0.72;100.00;100448.03;1028670;28;20333;-81
2022/11/21 00:08:52;;;;;;;30.33;22.45;;;;;;;0.72;100.00;100447.19;1029587;28;20316;-81
2022/11/21 00:09:24;;;;;;;33.90;22.95;;;;;;;0.71;100.00;100441.16;1032386;28;20363;-82
2022/11/21 00:09:55;;;;;;;37.33;21.92;;;;;;;0.68;100.00;100441.47;1039448;28;20745;-82
2022/11/21 00:10:27;;;;;;;36.08;24.02;;;;;;;0.67;100.00;100445.06;1031939;28;20383;-81
2022/11/21 00:10:58;;;;;;;33.33;24.08;;;;;;;0.64;100.00;100439.34;1032088;28;20708;-82
2022/11/21 00:11:30;;;;;;;33.55;22.35;;;;;;;0.60;100.00;100447.53;1030244;28;20289;-81
2022/11/21 00:12:01;;;;;;;28.63;21.63;;;;;;;0.60;100.00;100438.84;1028326;28;20354;-81
2022/11/21 00:12:33;;;;;;;32.92;24.38;;;;;;;0.59;100.00;100448.50;1031483;28;20297;-81
2022/11/21 00:13:06;;;;;;;32.35;23.20;;;;;;;0.57;100.00;100449.66;1032260;28;20297;-81
2022/11/21 00:13:38;;;;;;;31.73;22.90;;;;;;;0.53;100.00;100443.06;1035549;28;20332;-81
2022/11/21 00:14:09;;;;;;;35.70;22.55;;;;;;;0.53;100.00;100445.69;1031716;28;20301;-81
2022/11/21 00:14:41;;;;;;;32.33;22.70;;;;;;;0.53;100.00;100440.44;1031833;28;20321;-81
2022/11/21 00:15:12;;;;;;;32.67;22.55;;;;;;;0.53;100.00;100448.31;1031699;28;20305;-82
2022/11/21 00:15:45;;;;;;;31.67;22.52;;;;;;;0.54;100.00;100444.72;1035401;28;20399;-81
2022/11/21 00:16:16;;;;;;;31.60;22.98;;;;;;;0.53;100.00;100448.31;1027877;28;20875;-81
2022/11/21 00:16:48;;;;;;;30.25;22.55;;;;;;;0.51;100.00;100450.28;1031376;28;20396;-81
2022/11/21 00:17:26;;;;;;;30.40;21.33;;;;;;;0.49;100.00;100447.00;1027428;28;20314;-82
2022/11/21 00:17:58;;;;;;;35.30;24.90;;;;;;;0.50;100.00;100454.69;1026615;28;20376;-81
2022/11/21 00:18:29;;;;;;;32.85;22.15;;;;;;;0.52;100.00;100452.72;1024614;28;20404;-82
2022/11/21 00:19:00;;;;;;;31.85;22.63;;;;;;;0.50;100.00;100443.41;1028624;28;20780;-81
2022/11/21 00:19:32;;;;;;;29.48;22.60;;;;;;;0.51;100.00;100447.66;1027364;28;20438;-82
2022/11/21 00:20:04;;;;;;;29.33;22.15;;;;;;;0.48;100.00;100442.72;1028727;28;20357;-81
2022/11/21 00:20:36;;;;;;;29.45;21.20;;;;;;;0.52;100.00;100446.66;1031664;28;20301;-81
2022/11/21 00:21:11;;;;;;;30.52;22.20;;;;;;;0.49;100.00;100447.81;1024595;28;20321;-81
2022/11/21 00:21:42;;;;;;;28.27;21.90;;;;;;;0.57;100.00;100450.47;1028558;28;20329;-82
2022/11/21 00:22:14;;;;;;;29.67;21.88;;;;;;;0.59;100.00;100447.69;1028584;28;20345;-82
2022/11/21 00:22:46;;;;;;;29.67;21.98;;;;;;;0.58;100.00;100440.81;1029194;28;20464;-81
2022/11/21 00:23:17;;;;;;;30.83;22.25;;;;;;;0.64;100.00;100445.41;1035886;28;20315;-82
2022/11/21 00:23:51;;;;;;;31.65;22.60;;;;;;;0.64;100.00;100434.91;1039872;28;20300;-82
2022/11/21 00:24:22;;;;;;;31.50;22.10;;;;;;;0.64;100.00;100440.16;1027689;28;20790;-81
2022/11/21 00:24:54;;;;;;;30.38;22.40;;;;;;;0.67;100.00;100439.81;1024054;28;20885;-81
2022/11/21 00:25:26;;;;;;;30.58;21.55;;;;;;;0.66;100.00;100438.19;1026698;28;20306;-81
2022/11/21 00:25:57;;;;;;;33.03;24.75;;;;;;;0.68;100.00;100436.22;1025358;28;20313;-81
2022/11/21 00:26:28;;;;;;;31.08;22.00;;;;;;;0.67;100.00;100439.81;1023788;28;20389;-82
2022/11/21 00:27:00;;;;;;;35.45;22.77;;;;;;;0.65;100.00;100431.31;1027999;28;20392;-81
2022/11/21 00:27:32;;;;;;;33.55;24.55;;;;;;;0.66;100.00;100427.72;1028061;28;20305;-81
2022/11/21 00:28:04;;;;;;;31.55;22.83;;;;;;;0.63;100.00;100433.28;1028803;28;20943;-81
2022/11/21 00:28:36;;;;;;;36.92;24.58;;;;;;;0.61;100.00;100430.81;1031456;28;20853;-81
2022/11/21 00:29:07;;;;;;;38.28;24.83;;;;;;;0.59;100.00;100431.97;1032352;28;20337;-81
2022/11/21 00:29:39;;;;;;;33.75;24.20;;;;;;;0.61;100.00;100437.88;1032495;28;20336;-81
2022/11/21 00:30:11;;;;;;;32.30;25.35;;;;;;;0.58;100.00;100440.81;1035252;28;20817;-81
2022/11/21 00:30:42;;;;;;;34.53;24.42;;;;;;;0.56;100.00;100438.34;1035764;28;20375;-81
2022/11/21 00:31:19;;;;;;;35.78;24.58;;;;;;;0.55;100.00;100441.13;1036256;28;20352;-81
2022/11/21 00:31:51;;;;;;;34.13;23.48;;;;;;;0.55;100.00;100438.50;1037136;28;20371;-81
2022/11/21 00:32:22;;;;;;;32.72;24.80;;;;;;;0.56;100.00;100440.16;1032686;28;20380;-81
2022/11/21 00:32:54;;;;;;;32.70;23.52;;;;;;;0.56;100.00;100445.41;1035724;28;20327;-82
2022/11/21 00:33:25;;;;;;;32.17;23.58;;;;;;;0.54;100.00;100439.47;1036116;28;20391;-81
2022/11/21 00:33:57;;;;;;;31.35;23.75;;;;;;;0.53;100.00;100440.44;1035488;28;20300;-81
2022/11/21 00:34:29;;;;;;;37.08;25.63;;;;;;;0.52;100.00;100446.66;1032784;28;20387;-81
2022/11/21 00:35:00;;;;;;;36.03;24.20;;;;;;;0.49;100.00;100442.56;1033609;28;20860;-81
2022/11/21 00:35:32;;;;;;;33.65;24.42;;;;;;;0.50;100.00;100440.78;1031542;28;20315;-81
2022/11/21 00:36:07;;;;;;;35.13;24.17;;;;;;;0.50;100.00;100443.41;1026983;28;20337;-82
2022/11/21 00:36:39;;;;;;;37.78;24.52;;;;;;;0.48;100.00;100440.13;1023546;28;20306;-81
2022/11/21 00:37:10;;;;;;;36.83;26.15;;;;;;;0.45;100.00;100445.69;1023495;28;20377;-81
2022/11/21 00:37:42;;;;;;;36.05;26.58;;;;;;;0.43;100.00;100442.41;1025349;28;20377;-81
2022/11/21 00:38:14;;;;;;;35.83;25.23;;;;;;;0.44;100.00;100439.63;1030298;28;20297;-81
2022/11/21 00:38:46;;;;;;;33.47;23.58;;;;;;;0.38;100.00;100440.28;1032183;28;20396;-81
2022/11/21 00:39:17;;;;;;;35.17;25.10;;;;;;;0.37;100.00;100443.03;1036052;28;20303;-81
2022/11/21 00:39:49;;;;;;;39.47;24.40;;;;;;;0.33;100.00;100439.94;1036244;28;20324;-81
2022/11/21 00:40:20;;;;;;;35.30;25.08;;;;;;;0.36;100.00;100434.38;1032268;28;20781;-81
2022/11/21 00:40:52;;;;;;;34.67;23.83;;;;;;;0.40;100.00;100442.72;1031856;28;20325;-81
2022/11/21 00:41:23;;;;;;;38.30;25.92;;;;;;;0.36;100.00;100441.41;1034049;28;20308;-82
2022/11/21 00:41:55;;;;;;;31.73;24.75;;;;;;;0.30;100.00;100438.44;1036255;28;20755;-81
2022/11/21 00:42:26;;;;;;;32.63;23.75;;;;;;;0.30;100.00;100441.06;1039841;28;20332;-81
2022/11/21 00:42:58;;;;;;;31.13;23.70;;;;;;;0.21;100.00;100436.78;1040039;28;20422;-82
2022/11/21 00:43:29;;;;;;;35.90;25.00;;;;;;;0.23;100.00;100441.84;1044026;28;20303;-81
2022/11/21 00:44:01;;;;;;;34.70;24.75;;;;;;;0.25;100.00;100445.94;1033305;28;20301;-81
2022/11/21 00:44:32;;;;;;;35.00;26.17;;;;;;;0.16;100.00;100443.47;1027848;28;20384;-81
2022/11/21 00:45:04;;;;;;;30.98;22.90;;;;;;;0.12;100.00;100445.59;1031479;28;20484;-82
2022/11/21 00:45:36;;;;;;;33.65;23.20;;;;;;;0.12;100.00;100447.38;1032036;28;20432;-81
2022/11/21 00:46:08;;;;;;;37.35;23.98;;;;;;;0.14;100.00;100445.44;1032890;28;20391;-81
2022/11/21 00:46:39;;;;;;;37.35;26.08;;;;;;;0.18;100.00;100444.94;1027317;28;20361;-82
2022/11/21 00:47:11;;;;;;;34.78;25.30;;;;;;;0.18;100.00;100447.56;1028113;28;20383;-82
2022/11/21 00:47:42;;;;;;;38.03;25.98;;;;;;;0.29;100.00;100455.16;1027929;28;20420;-82
2022/11/21 00:48:14;;;;;;;37.38;25.10;;;;;;;0.28;100.00;100445.66;1035805;28;20293;-81
2022/11/21 00:48:45;;;;;;;33.53;23.80;;;;;;;0.29;100.00;100449.91;1031599;28;20545;-82
2022/11/21 00:49:17;;;;;;;38.05;24.30;;;;;;;0.37;100.00;100446.50;1026755;28;20306;-81
2022/11/21 00:49:48;;;;;;;36.33;24.65;;;;;;;0.43;100.00;100447.63;1023728;28;20393;-81
2022/11/21 00:50:20;;;;;;;36.60;24.77;;;;;;;0.46;100.00;100447.31;1027847;28;20329;-81
2022/11/21 00:50:51;;;;;;;33.63;25.42;;;;;;;0.50;100.00;100453.88;1031409;28;20447;-81
2022/11/21 00:51:23;;;;;;;36.58;25.20;;;;;;;0.52;100.00;100449.28;1036272;28;20301;-81
2022/11/21 00:51:54;;;;;;;34.38;24.38;;;;;;;0.54;100.00;100452.56;1039329;28;20296;-82
2022/11/21 00:52:26;;;;;;;37.88;25.52;;;;;;;0.55;100.00;100446.38;1034481;28;20857;-81
2022/11/21 00:52:58;;;;;;;41.40;26.92;;;;;;;0.55;100.00;100451.63;1035538;28;20380;-81
2022/11/21 00:53:29;;;;;;;36.47;25.08;;;;;;;0.55;100.00;100449.00;1035626;28;20379;-81
2022/11/21 00:54:01;;;;;;;35.92;25.70;;;;;;;0.54;100.00;100449.94;1035975;28;20809;-81
2022/11/21 00:54:32;;;;;;;36.65;26.30;;;;;;;0.48;100.00;100450.59;1035926;28;20300;-81
2022/11/21 00:55:04;;;;;;;34.28;24.65;;;;;;;0.49;100.00;100449.63;1032035;28;20321;-81
2022/11/21 00:55:36;;;;;;;35.35;24.05;;;;;;;0.45;100.00;100450.91;1032180;28;20715;-81
2022/11/21 00:56:07;;;;;;;39.05;26.83;;;;;;;0.43;100.00;100450.25;1030980;28;20705;-81
2022/11/21 00:56:39;;;;;;;38.10;26.20;;;;;;;0.44;100.00;100449.28;1027408;28;20430;-81
2022/11/21 00:57:11;;;;;;;34.28;24.67;;;;;;;0.41;100.00;100446.97;1028105;28;20649;-81
2022/11/21 00:57:42;;;;;;;42.28;27.98;;;;;;;0.33;100.00;100447.78;1028135;28;20351;-81
2022/11/21 00:58:14;;;;;;;38.33;26.60;;;;;;;0.35;100.00;100447.63;1027200;28;20306;-81
2022/11/21 00:58:45;;;;;;;38.13;26.20;;;;;;;0.40;100.00;100446.16;1027327;28;20761;-81
2022/11/21 00:59:18;;;;;;;36.22;25.90;;;;;;;0.42;100.00;100461.72;1027735;28;20316;-82
2022/11/21 00:59:49;;;;;;;38.63;25.67;;;;;;;0.43;100.00;100452.88;1026493;28;20314;-81
2022/11/21 01:00:21;;;;;;;37.53;25.38;;;;;;;0.36;100.00;100457.13;1032016;28;20328;-81
2022/11/21 01:01:01;;;;;;;35.60;26.20;;;;;;;0.34;100.00;100453.84;1032016;28;20440;-81
2022/11/21 01:01:32;;;;;;;36.15;24.52;;;;;;;0.32;100.00;100454.00;1031286;28;20384;-81
2022/11/21 01:02:04;;;;;;;38.42;25.90;;;;;;;0.36;100.00;100457.94;1033007;28;20508;-81
2022/11/21 01:02:35;;;;;;;35.30;25.30;;;;;;;0.44;100.00;100449.28;1035164;28;20307;-81
2022/11/21 01:03:07;;;;;;;39.38;24.67;;;;;;;0.46;100.00;100458.63;1036027;28;20358;-81
2022/11/21 01:03:39;;;;;;;35.72;25.33;;;;;;;0.41;100.00;100447.81;1039707;28;20758;-82
2022/11/21 01:04:10;;;;;;;39.60;25.83;;;;;;;0.40;100.00;100454.03;1028627;28;20900;-81
2022/11/21 01:04:42;;;;;;;35.75;24.77;;;;;;;0.30;100.00;100456.78;1027674;28;20757;-81
2022/11/21 01:05:13;;;;;;;36.28;25.30;;;;;;;0.29;100.00;100460.38;1023674;28;20311;-81
2022/11/21 01:05:45;;;;;;;33.90;24.13;;;;;;;0.32;100.00;100461.03;1028513;28;20313;-81
2022/11/21 01:06:17;;;;;;;36.13;25.42;;;;;;;0.24;100.00;100454.78;1039476;28;20689;-82
2022/11/21 01:06:48;;;;;;;35.67;25.02;;;;;;;0.22;100.00;100464.59;1033017;28;20301;-82
2022/11/21 01:07:20;;;;;;;32.75;24.42;;;;;;;0.23;100.00;100461.00;1035969;28;20707;-81
2022/11/21 01:07:51;;;;;;;34.88;25.95;;;;;;;0.15;100.00;100466.22;1031129;28;20396;-82
2022/11/21 01:08:23;;;;;;;34.40;24.17;;;;;;;0.16;100.00;100457.38;1033854;28;20379;-82
2022/11/21 01:08:54;;;;;;;37.67;26.08;;;;;;;0.15;100.00;100463.59;1039474;28;20339;-82
2022/11/21 01:09:27;;;;;;;39.10;26.63;;;;;;;0.10;100.00;100458.03;1040076;28;20415;-82
2022/11/21 01:09:59;;;;;;;32.00;24.25;;;;;;;0.15;100.00;100460.16;1037703;28;20303;-82
2022/11/21 01:10:30;;;;;;;35.30;25.48;;;;;;;0.16;100.00;100457.38;1031686;28;20383;-81
2022/11/21 01:11:07;;;;;;;39.03;25.42;;;;;;;0.12;100.00;100461.28;1031571;28;20312;-81
2022/11/21 01:11:38;;;;;;;39.67;25.08;;;;;;;0.14;100.00;100461.97;1026700;28;20450;-81
2022/11/21 01:12:10;;;;;;;32.90;22.52;;;;;;;0.17;100.00;100463.44;1028798;28;20294;-82
2022/11/21 01:12:43;;;;;;;34.80;25.42;;;;;;;0.19;100.00;100459.69;1031366;28;20377;-82
2022/11/21 01:13:14;;;;;;;33.03;24.02;;;;;;;0.27;100.00;100459.72;1032568;28;20320;-82
2022/11/21 01:13:46;;;;;;;34.92;22.77;;;;;;;0.33;100.00;100463.50;1039626;28;20754;-81
2022/11/21 01:14:18;;;;;;;33.20;24.17;;;;;;;0.36;100.00;100472.84;1035495;28;20300;-82
2022/11/21 01:14:49;;;;;;;37.30;24.23;;;;;;;0.35;100.00;100461.53;1035127;28;20431;-81
2022/11/21 01:15:21;;;;;;;36.33;24.55;;;;;;;0.45;100.00;100461.41;1035582;28;20766;-82
2022/11/21 01:15:53;;;;;;;38.55;26.38;;;;;;;0.56;100.00;100458.50;1035549;28;20395;-81
2022/11/21 01:16:26;;;;;;;34.15;22.95;;;;;;;0.60;100.00;100465.06;1031010;28;20366;-81
2022/11/21 01:16:57;;;;;;;35.88;25.92;;;;;;;0.61;100.00;100457.03;1026920;28;20294;-81
2022/11/21 01:17:31;;;;;;;33.67;23.77;;;;;;;0.65;100.00;100465.38;1028174;28;20638;-81
2022/11/21 01:18:02;;;;;;;34.97;22.92;;;;;;;0.66;100.00;100467.03;1029060;28;20749;-81
2022/11/21 01:18:34;;;;;;;34.88;24.63;;;;;;;0.71;100.00;100461.28;1036021;28;21076;-81
2022/11/21 01:19:06;;;;;;;33.78;24.30;;;;;;;0.74;100.00;100459.16;1035585;28;20354;-81
2022/11/21 01:19:37;;;;;;;38.88;27.17;;;;;;;0.75;100.00;100458.19;1027805;28;20305;-81
2022/11/21 01:20:09;;;;;;;42.90;26.70;;;;;;;0.74;100.00;100459.16;1027166;28;20321;-81
2022/11/21 01:20:41;;;;;;;33.28;23.98;;;;;;;0.73;100.00;100454.09;1031385;28;20310;-81
2022/11/21 01:21:24;;;;;;;37.42;24.65;;;;;;;0.74;100.00;100461.78;1031576;28;20376;-81
2022/11/21 01:21:55;;;;;;;36.40;24.00;;;;;;;0.75;100.00;100468.66;1035921;28;20307;-81
2022/11/21 01:22:27;;;;;;;36.58;25.48;;;;;;;0.71;100.00;100471.78;1035170;28;20304;-81
2022/11/21 01:22:58;;;;;;;35.42;25.60;;;;;;;0.66;100.00;100469.63;1033033;28;20336;-81
2022/11/21 01:23:30;;;;;;;35.05;23.25;;;;;;;0.60;100.00;100471.13;1031949;28;20289;-81
2022/11/21 01:24:02;;;;;;;36.00;23.65;;;;;;;0.56;100.00;100474.22;1025397;28;20705;-81
2022/11/21 01:24:33;;;;;;;37.40;26.80;;;;;;;0.58;100.00;100474.88;1027791;28;20298;-81
2022/11/21 01:25:05;;;;;;;42.83;25.48;;;;;;;0.53;100.00;100472.72;1027894;28;20309;-81
2022/11/21 01:25:37;;;;;;;40.95;27.30;;;;;;;0.49;100.00;100473.19;1032324;28;20625;-81
2022/11/21 01:26:11;;;;;;;37.67;26.38;;;;;;;0.56;100.00;100468.97;1038622;28;20370;-81
2022/11/21 01:26:42;;;;;;;34.55;25.48;;;;;;;0.56;100.00;100475.03;1032236;28;20361;-81
2022/11/21 01:27:14;;;;;;;38.58;26.63;;;;;;;0.61;100.00;100471.94;1038093;28;20300;-81
2022/11/21 01:27:45;;;;;;;36.17;25.95;;;;;;;0.69;100.00;100469.31;1039279;28;20338;-81
2022/11/21 01:28:17;;;;;;;36.58;24.90;;;;;;;0.71;100.00;100477.03;1039488;28;20350;-81
2022/11/21 01:28:49;;;;;;;43.28;28.20;;;;;;;0.71;100.00;100474.41;1043601;28;20295;-81
2022/11/21 01:29:20;;;;;;;38.63;25.25;;;;;;;0.69;100.00;100471.13;1036740;28;20443;-81
2022/11/21 01:29:52;;;;;;;40.35;27.02;;;;;;;0.64;100.00;100476.03;1035262;28;20892;-81
2022/11/21 01:30:23;;;;;;;35.42;25.95;;;;;;;0.60;100.00;100475.53;1033923;28;20298;-81
2022/11/21 01:31:02;;;;;;;39.95;27.20;;;;;;;0.57;100.00;100471.44;1035955;28;20451;-81
2022/11/21 01:31:34;;;;;;;41.10;25.60;;;;;;;0.50;100.00;100474.84;1036967;28;20328;-81
2022/11/21 01:32:06;;;;;;;36.10;24.08;;;;;;;0.52;100.00;100478.13;1035083;28;20650;-82
2022/11/21 01:32:38;;;;;;;37.45;26.23;;;;;;;0.48;100.00;100471.56;1027424;28;20641;-81
2022/11/21 01:33:09;;;;;;;41.08;27.30;;;;;;;0.49;100.00;100473.19;1027518;28;20657;-81
2022/11/21 01:33:41;;;;;;;34.15;25.50;;;;;;;0.55;100.00;100469.97;1028399;28;20302;-81
2022/11/21 01:34:14;;;;;;;35.95;25.70;;;;;;;0.60;100.00;100473.72;1032204;28;20308;-81
2022/11/21 01:34:45;;;;;;;38.17;26.10;;;;;;;0.63;100.00;100472.59;1039390;28;20678;-81
2022/11/21 01:35:17;;;;;;;37.20;26.15;;;;;;;0.65;100.00;100464.56;1031387;28;20695;-81
2022/11/21 01:35:49;;;;;;;37.47;24.33;;;;;;;0.68;100.00;100467.69;1028888;28;20302;-81
2022/11/21 01:36:22;;;;;;;36.72;25.60;;;;;;;0.65;100.00;100472.44;1028869;28;20372;-81
2022/11/21 01:36:54;;;;;;;38.22;25.10;;;;;;;0.62;100.00;100465.72;1026748;28;20434;-81
2022/11/21 01:37:25;;;;;;;38.20;25.52;;;;;;;0.60;100.00;100471.13;1021585;28;20384;-81
2022/11/21 01:37:57;;;;;;;37.85;26.08;;;;;;;0.54;100.00;100461.25;1020548;28;20303;-81
2022/11/21 01:38:28;;;;;;;37.42;25.65;;;;;;;0.48;100.00;100467.13;1023930;28;20394;-81
2022/11/21 01:39:03;;;;;;;40.65;25.67;;;;;;;0.44;100.00;100465.81;1019742;29;20345;-81
2022/11/21 01:39:34;;;;;;;33.90;25.42;;;;;;;0.32;100.00;100471.53;1022404;28;20382;-81
2022/11/21 01:40:06;;;;;;;35.72;25.10;;;;;;;0.32;100.00;100476.75;1030777;28;20383;-81
2022/11/21 01:40:38;;;;;;;38.08;26.27;;;;;;;0.39;100.00;100472.53;1027502;28;20338;-81
2022/11/21 01:41:12;;;;;;;36.53;25.60;;;;;;;0.42;100.00;100466.97;1021606;28;20303;-82
2022/11/21 01:41:44;;;;;;;39.25;25.45;;;;;;;0.46;100.00;100469.09;1023043;28;20536;-81
2022/11/21 01:42:15;;;;;;;37.42;26.25;;;;;;;0.47;100.00;100464.69;1027938;28;20663;-81
2022/11/21 01:43:02;;;;;;;36.20;26.90;;;;;;;0.54;100.00;100465.66;1031387;28;20380;-81
2022/11/21 01:43:34;;;;;;;34.95;25.42;;;;;;;0.58;100.00;100467.00;1030724;28;20329;-81
2022/11/21 01:44:26;;;;;;;39.28;25.58;;;;;;;0.56;100.00;100461.94;1033433;28;20870;-81
2022/11/21 01:44:59;;;;;;;36.67;25.00;;;;;;;0.60;100.00;100465.06;1039469;28;20491;-81
2022/11/21 01:45:55;;;;;;;39.22;25.60;;;;;;;0.61;100.00;100461.44;1039241;28;20741;-81
2022/11/21 01:46:26;;;;;;;39.17;23.02;;;;;;;0.59;100.00;100461.63;1042800;28;20422;-81
2022/11/21 01:46:58;;;;;;;36.30;25.13;;;;;;;0.40;100.00;100463.69;1042481;28;20389;-81
2022/11/21 01:47:29;;;;;;;37.58;25.65;;;;;;;0.23;100.00;100458.38;1039519;28;20446;-81
2022/11/21 01:48:01;;;;;;;34.53;23.40;;;;;;;0.26;100.00;100463.28;1036479;28;20292;-82
2022/11/21 01:48:54;;;;;;;35.47;26.13;;;;;;;0.24;100.00;100465.25;1038418;28;20378;-81
2022/11/21 01:49:28;;;;;;;39.25;25.00;;;;;;;0.51;100.00;100466.00;1041433;28;20737;-81
2022/11/21 01:50:00;;;;;;;42.67;27.02;;;;;;;0.55;100.00;100469.97;1043631;28;20406;-81
2022/11/21 01:50:31;;;;;;;33.33;24.65;;;;;;;0.49;100.00;100455.66;1043272;28;20380;-81
2022/11/21 01:51:30;;;;;;;39.40;26.27;;;;;;;0.56;100.00;100458.50;1034793;28;20359;-81
2022/11/21 01:52:04;;;;;;;36.63;23.88;;;;;;;0.57;100.00;100458.34;1029381;28;20309;-81
2022/11/21 01:52:35;;;;;;;37.20;25.98;;;;;;;0.53;100.00;100457.00;1030727;28;20309;-81
2022/11/21 01:53:07;;;;;;;40.30;26.50;;;;;;;0.54;100.00;100465.66;1031513;28;20389;-81
2022/11/21 01:53:39;;;;;;;41.83;26.75;;;;;;;0.53;100.00;100458.78;1027896;28;20321;-82
2022/11/21 01:54:32;;;;;;;44.08;26.58;;;;;;;0.52;100.00;100452.72;1024474;28;20688;-81
2022/11/21 01:55:06;;;;;;;37.03;24.60;;;;;;;0.52;100.00;100462.38;1031221;28;20803;-81
2022/11/21 01:55:38;;;;;;;40.05;25.35;;;;;;;0.51;100.00;100456.34;1031198;28;20370;-81
2022/11/21 01:56:10;;;;;;;42.15;28.27;;;;;;;0.48;100.00;100461.06;1034583;28;20451;-81
2022/11/21 01:56:50;;;;;;;37.42;25.83;;;;;;;0.49;100.00;100452.22;1031091;28;20710;-81
2022/11/21 01:57:28;;;;;;;35.85;25.38;;;;;;;0.49;100.00;100458.28;1032596;28;20435;-81
2022/11/21 01:58:00;;;;;;;41.28;25.92;;;;;;;0.46;100.00;100452.56;1037041;28;20347;-81
2022/11/21 01:58:33;;;;;;;40.90;28.10;;;;;;;0.48;100.00;100461.06;1033756;28;20820;-81
2022/11/21 01:59:06;;;;;;;45.03;29.05;;;;;;;0.45;100.00;100453.53;1028274;28;20313;-81
2022/11/21 01:59:39;;;;;;;42.85;27.65;;;;;;;0.44;100.00;100449.28;1027259;28;20334;-81
2022/11/21 02:00:15;;;;;;;42.28;26.80;;;;;;;0.41;100.00;100460.09;1028222;28;20388;-81
2022/11/21 02:00:46;;;;;;;44.35;27.42;;;;;;;0.38;100.00;100458.59;1028554;28;20344;-81
2022/11/21 02:01:18;;;;;;;41.85;28.00;;;;;;;0.39;100.00;100462.03;1028597;28;20309;-81
2022/11/21 02:01:50;;;;;;;44.38;27.60;;;;;;;0.38;100.00;100460.41;1031275;28;20396;-81
2022/11/21 02:02:26;;;;;;;38.28;27.52;;;;;;;0.34;100.00;100464.31;1020473;28;20310;-81
2022/11/21 02:03:01;;;;;;;39.70;27.33;;;;;;;0.32;100.00;100471.53;1024774;28;20852;-81
2022/11/21 02:03:35;;;;;;;37.05;27.20;;;;;;;0.22;100.00;100461.97;1028167;28;20327;-81
2022/11/21 02:04:07;;;;;;;44.70;28.80;;;;;;;0.25;100.00;100472.13;1032902;28;20424;-81
2022/11/21 02:04:39;;;;;;;40.42;27.38;;;;;;;0.22;100.00;100461.97;1036319;28;20297;-81
2022/11/21 02:05:15;;;;;;;38.30;26.02;;;;;;;0.19;100.00;100456.25;1035383;28;20295;-81
2022/11/21 02:05:47;;;;;;;41.35;27.95;;;;;;;0.10;100.00;100460.63;1030918;28;20368;-81
2022/11/21 02:06:19;;;;;;;36.17;26.05;;;;;;;0.10;100.00;100465.88;1026943;28;20504;-81
2022/11/21 02:06:51;;;;;;;39.45;27.77;;;;;;;0.11;100.00;100459.66;1024578;28;20480;-81
2022/11/21 02:07:23;;;;;;;38.97;26.25;;;;;;;0.14;100.00;100461.13;1022302;28;20666;-81
2022/11/21 02:07:57;;;;;;;38.95;26.90;;;;;;;0.20;100.00;100457.88;1027555;28;20301;-81
2022/11/21 02:08:29;;;;;;;38.53;26.98;;;;;;;0.24;100.00;100462.63;1024051;28;20793;-81
2022/11/21 02:09:01;;;;;;;40.97;26.75;;;;;;;0.19;100.00;100462.31;1027969;28;20309;-81
2022/11/21 02:09:35;;;;;;;37.63;26.85;;;;;;;0.18;100.00;100465.91;1032032;28;20403;-81
2022/11/21 02:10:08;;;;;;;39.58;26.08;;;;;;;0.10;100.00;100467.69;1037604;28;20328;-81
2022/11/21 02:10:55;;;;;;;37.08;25.33;;;;;;;0.05;100.00;100464.72;1043288;28;20727;-81
2022/11/21 02:11:33;;;;;;;36.08;24.80;;;;;;;0.08;100.00;100465.22;1036482;28;20447;-82
2022/11/21 02:12:08;;;;;;;35.45;23.52;;;;;;;0.13;100.00;100467.34;1026282;28;20303;-81
2022/11/21 02:12:42;;;;;;;34.13;23.58;;;;;;;0.10;100.00;100468.50;1028387;28;20334;-81
2022/11/21 02:13:14;;;;;;;39.50;25.77;;;;;;;0.05;100.00;100470.78;1033157;28;20768;-81
2022/11/21 02:13:46;;;;;;;40.85;25.73;;;;;;;0.13;100.00;100464.72;1036503;28;20300;-81
2022/11/21 02:14:17;;;;;;;37.38;25.73;;;;;;;0.07;100.00;100463.56;1036384;28;20371;-82
2022/11/21 02:14:50;;;;;;;40.65;25.00;;;;;;;0.08;100.00;100470.44;1038951;28;20300;-81
2022/11/21 02:15:26;;;;;;;36.75;24.23;;;;;;;0.07;100.00;100463.56;1035947;28;20371;-81
2022/11/21 02:15:58;;;;;;;35.75;24.20;;;;;;;0.05;100.00;100460.28;1032515;28;20405;-82
2022/11/21 02:16:29;;;;;;;41.05;25.42;;;;;;;0.03;100.00;100459.63;1027191;28;20465;-81
2022/11/21 02:17:04;;;;;;;33.72;24.33;;;;;;;0.03;100.00;100450.97;1028270;28;20376;-81
2022/11/21 02:17:36;;;;;;;37.15;24.35;;;;;;;0.07;100.00;100460.97;1023782;28;20303;-81
2022/11/21 02:18:10;;;;;;;35.83;23.40;;;;;;;0.02;100.00;100450.13;1028868;28;20298;-81
2022/11/21 02:18:42;;;;;;;33.65;24.33;;;;;;;-0.02;100.00;100454.84;1030951;28;20750;-81
2022/11/21 02:19:26;;;;;;;33.78;24.48;;;;;;;0.11;100.00;100449.19;1028632;28;20350;-81
2022/11/21 02:20:00;;;;;;;35.50;23.90;;;;;;;0.19;100.00;100445.75;1029272;28;20304;-81
2022/11/21 02:20:31;;;;;;;37.63;25.65;;;;;;;0.28;100.00;100456.13;1029274;28;20784;-81
2022/11/21 02:21:11;;;;;;;37.13;25.50;;;;;;;0.32;100.00;100446.16;1029694;28;20333;-81
2022/11/21 02:21:54;;;;;;;35.05;25.38;;;;;;;0.23;100.00;100442.66;1029090;28;20780;-81
2022/11/21 02:22:56;;;;;;;34.75;23.98;;;;;;;0.00;100.00;100446.84;1034017;28;20153;-81
2022/11/21 02:23:36;;;;;;;37.97;24.65;;;;;;;-0.01;100.00;100445.19;1032947;28;20324;-81
2022/11/21 02:24:21;;;;;;;39.50;22.30;;;;;;;0.03;100.00;100450.97;1029676;28;20496;-81
2022/11/21 02:25:20;;;;;;;34.72;23.85;;;;;;;-0.01;100.00;100448.63;1024637;28;20043;-81
2022/11/21 02:25:52;;;;;;;34.50;22.83;;;;;;;-0.01;100.00;100450.44;1028687;28;20469;-82
2022/11/21 02:26:25;;;;;;;34.78;24.48;;;;;;;-0.02;100.00;100448.78;1028236;28;20356;-82
2022/11/21 02:26:58;;;;;;;36.38;24.95;;;;;;;0.01;100.00;100453.75;1034978;28;20288;-81
2022/11/21 02:27:30;;;;;;;35.67;24.35;;;;;;;0.02;100.00;100450.13;1033008;28;20301;-81
2022/11/21 02:28:04;;;;;;;34.67;24.25;;;;;;;-0.01;100.00;100450.44;1038147;28;20335;-82
2022/11/21 02:28:36;;;;;;;30.58;22.88;;;;;;;0.01;100.00;100450.31;1038927;28;20311;-81
2022/11/21 02:29:07;;;;;;;33.40;23.75;;;;;;;0.01;100.00;100448.50;1038218;28;20663;-82
2022/11/21 02:29:39;;;;;;;36.45;24.80;;;;;;;0.04;100.00;100452.59;1032177;28;20493;-81
2022/11/21 02:30:11;;;;;;;34.55;23.58;;;;;;;0.04;100.00;100450.81;1030937;28;20309;-82
2022/11/21 02:30:43;;;;;;;33.88;24.13;;;;;;;0.04;100.00;100445.56;1026118;28;20469;-81